Time;durP1;ratioP1;P1;durP2;ratioP2;P2;SDS_P1;SDS_P2;PMS_P1;PMS_P2;Temp;Humidity;BMP_temperature;BMP_pressure;BME280_temperature;BME280_humidity;BME280_pressure;Samples;Min_cycle;Max_cycle;Signal;HPM_P1;HPM_P2
2022/04/14 00:01:54;;;;;;;17.30;8.45;;;;;;;6.93;86.38;99322.53;4384206;32;20061;-72
2022/04/14 00:04:21;;;;;;;21.37;9.10;;;;;;;6.91;87.22;99334.25;4382570;32;20077;-72
2022/04/14 00:06:47;;;;;;;23.30;9.45;;;;;;;6.80;88.21;99329.59;4401287;32;20491;-73
2022/04/14 00:09:14;;;;;;;19.60;8.50;;;;;;;6.57;89.50;99291.91;4398361;32;20065;-72
2022/04/14 00:11:40;;;;;;;29.20;10.40;;;;;;;6.59;91.21;99305.88;4387896;32;20081;-72
2022/04/14 00:14:07;;;;;;;23.10;10.13;;;;;;;6.77;91.36;99330.03;4401892;32;20400;-72
2022/04/14 00:16:34;;;;;;;18.60;8.32;;;;;;;6.71;91.99;99336.25;4401252;32;20043;-72
2022/04/14 00:19:00;;;;;;;25.10;9.65;;;;;;;6.35;94.35;99278.88;4400080;32;20035;-73
2022/04/14 00:21:27;;;;;;;25.95;9.95;;;;;;;6.60;94.75;99323.56;4387985;32;20027;-72
2022/04/14 00:23:53;;;;;;;21.62;10.18;;;;;;;6.50;96.06;99324.88;4400721;32;20050;-73
2022/04/14 00:26:20;;;;;;;36.88;10.35;;;;;;;6.18;97.42;99284.75;4406016;32;20042;-72
2022/04/14 00:28:46;;;;;;;23.02;9.82;;;;;;;6.43;98.04;99308.06;4415563;32;20043;-73
2022/04/14 00:31:12;;;;;;;25.00;8.82;;;;;;;6.12;98.45;99268.75;4415584;32;20360;-73
2022/04/14 00:33:39;;;;;;;21.00;8.82;;;;;;;6.16;99.00;99275.31;4416724;32;20061;-73
2022/04/14 00:36:05;;;;;;;21.48;8.50;;;;;;;6.15;99.42;99279.81;4396077;32;20065;-73
2022/04/14 00:38:32;;;;;;;22.20;10.10;;;;;;;6.37;99.52;99308.91;4401507;32;20348;-73
2022/04/14 00:40:59;;;;;;;18.77;9.18;;;;;;;6.16;99.66;99276.13;4400043;32;20076;-73
2022/04/14 00:43:30;;;;;;;19.65;8.48;;;;;;;6.18;99.43;99267.88;4401014;32;20043;-72
2022/04/14 00:45:59;;;;;;;22.73;8.40;;;;;;;6.39;99.63;99317.53;4385360;32;20181;-73
2022/04/14 00:48:27;;;;;;;29.25;8.52;;;;;;;6.36;100.00;99312.63;4385006;32;20038;-72
2022/04/14 00:50:53;;;;;;;24.98;9.65;;;;;;;6.37;100.00;99314.25;4372182;32;20383;-72
2022/04/14 00:53:22;;;;;;;22.13;9.65;;;;;;;6.10;100.00;99266.28;4384077;32;20406;-72
2022/04/14 00:55:50;;;;;;;20.23;9.02;;;;;;;6.11;100.00;99265.25;4411719;32;20058;-73
2022/04/14 00:58:16;;;;;;;19.40;8.95;;;;;;;6.34;100.00;99294.09;4416359;32;20389;-72
2022/04/14 01:00:49;;;;;;;19.35;9.10;;;;;;;6.35;100.00;99305.63;4414908;32;20038;-72
2022/04/14 01:03:16;;;;;;;24.92;8.95;;;;;;;6.30;100.00;99308.97;4412400;32;20068;-72
2022/04/14 01:05:45;;;;;;;22.70;8.63;;;;;;;6.31;100.00;99307.09;4400625;32;20907;-71
2022/04/14 01:08:16;;;;;;;19.27;8.45;;;;;;;6.32;100.00;99306.06;4400981;32;20047;-72
2022/04/14 01:10:47;;;;;;;20.98;7.95;;;;;;;6.29;100.00;99301.16;4399418;32;20050;-71
2022/04/14 01:13:17;;;;;;;21.85;8.48;;;;;;;6.21;100.00;99293.34;4385616;32;20398;-73
2022/04/14 01:15:45;;;;;;;16.20;8.35;;;;;;;5.94;100.00;99245.38;4400896;32;20440;-71
2022/04/14 01:18:12;;;;;;;24.27;9.27;;;;;;;5.99;100.00;99248.25;4401057;32;20035;-71
2022/04/14 01:20:41;;;;;;;24.90;8.43;;;;;;;6.16;100.00;99286.00;4398152;32;20147;-71
2022/04/14 01:23:10;;;;;;;25.37;8.02;;;;;;;6.25;100.00;99299.94;4401749;32;20081;-72
2022/04/14 01:25:38;;;;;;;33.75;10.00;;;;;;;5.99;100.00;99250.94;4415834;32;20424;-71
2022/04/14 01:28:06;;;;;;;20.58;7.95;;;;;;;6.07;100.00;99269.37;4415977;32;20070;-71
2022/04/14 01:30:32;;;;;;;21.87;8.63;;;;;;;6.21;100.00;99293.34;4416100;32;20035;-71
2022/04/14 01:32:58;;;;;;;18.17;8.75;;;;;;;6.01;100.00;99246.19;4413747;32;20042;-72
2022/04/14 01:35:25;;;;;;;21.10;8.73;;;;;;;5.95;100.00;99252.34;4409886;32;20077;-72
2022/04/14 01:37:51;;;;;;;20.58;8.57;;;;;;;6.25;100.00;99289.22;4410265;32;20127;-71
2022/04/14 01:40:18;;;;;;;18.20;8.77;;;;;;;6.25;100.00;99287.38;4414656;32;20103;-71
2022/04/14 01:42:45;;;;;;;22.05;9.98;;;;;;;6.09;100.00;99264.63;4415949;32;20367;-71
2022/04/14 01:45:12;;;;;;;17.83;8.73;;;;;;;6.25;100.00;99284.69;4414369;32;20470;-72
2022/04/14 01:47:43;;;;;;;23.50;9.73;;;;;;;6.21;100.00;99282.66;4414040;32;20116;-71
2022/04/14 01:50:15;;;;;;;28.60;8.27;;;;;;;6.23;100.00;99280.62;4409641;32;20396;-71
2022/04/14 01:52:44;;;;;;;23.77;8.57;;;;;;;6.17;100.00;99277.78;4400480;32;20068;-71
2022/04/14 01:55:11;;;;;;;15.27;8.63;;;;;;;6.20;100.00;99286.38;4401371;32;20168;-72
2022/04/14 01:57:38;;;;;;;15.63;7.28;;;;;;;6.18;100.00;99283.94;4414561;32;20090;-71
2022/04/14 02:00:07;;;;;;;20.33;8.55;;;;;;;5.88;100.00;99240.88;4405435;32;20262;-71
2022/04/14 02:02:34;;;;;;;18.48;8.07;;;;;;;5.74;100.00;99219.56;4383838;32;20068;-71
2022/04/14 02:05:01;;;;;;;16.70;8.60;;;;;;;5.87;100.00;99240.06;4385398;32;20060;-71
2022/04/14 02:07:28;;;;;;;23.02;9.68;;;;;;;6.12;100.00;99279.44;4395803;32;20078;-72
2022/04/14 02:09:54;;;;;;;28.77;7.70;;;;;;;6.07;100.00;99280.06;4385188;32;20306;-72
2022/04/14 02:12:21;;;;;;;18.73;8.15;;;;;;;6.10;100.00;99285.00;4398503;32;20190;-72
2022/04/14 02:14:47;;;;;;;20.75;8.80;;;;;;;6.07;100.00;99284.59;4406735;32;20085;-72
2022/04/14 02:17:13;;;;;;;27.37;9.00;;;;;;;6.06;100.00;99286.44;4414218;32;20064;-72
2022/04/14 02:19:40;;;;;;;17.30;6.97;;;;;;;6.07;100.00;99290.75;4415173;32;20064;-72
2022/04/14 02:22:07;;;;;;;14.68;7.60;;;;;;;5.80;100.00;99249.97;4417935;32;20457;-72
2022/04/14 02:24:34;;;;;;;16.80;7.40;;;;;;;5.70;100.00;99231.72;4417897;32;20042;-71
2022/04/14 02:27:00;;;;;;;19.12;7.53;;;;;;;5.78;100.00;99247.50;4415644;32;20039;-72
2022/04/14 02:29:26;;;;;;;15.52;7.10;;;;;;;6.05;100.00;99283.97;4401287;32;20032;-72
2022/04/14 02:31:57;;;;;;;20.98;8.45;;;;;;;5.98;100.00;99292.03;4383035;32;20039;-74
2022/04/14 02:34:27;;;;;;;25.42;7.93;;;;;;;5.64;100.00;99230.69;4405726;32;20043;-73
2022/04/14 02:37:00;;;;;;;19.35;8.00;;;;;;;5.93;100.00;99275.81;4415542;32;20432;-73
2022/04/14 02:39:26;;;;;;;20.83;8.57;;;;;;;5.91;100.00;99283.22;4401793;32;20031;-73
2022/04/14 02:41:53;;;;;;;27.30;8.88;;;;;;;5.57;100.00;99219.25;4399874;32;20375;-73
2022/04/14 02:44:20;;;;;;;17.60;8.68;;;;;;;5.61;100.00;99224.97;4415238;32;20948;-73
2022/04/14 02:46:46;;;;;;;21.25;7.80;;;;;;;5.83;100.00;99255.69;4413516;32;20062;-73
2022/04/14 02:49:12;;;;;;;19.92;9.35;;;;;;;5.84;100.00;99261.87;4406459;32;20042;-73
2022/04/14 02:51:39;;;;;;;16.92;8.65;;;;;;;5.56;100.00;99227.47;4383898;32;20035;-70
2022/04/14 02:54:05;;;;;;;16.95;8.50;;;;;;;5.78;100.00;99263.53;4410034;32;20046;-71
2022/04/14 02:56:31;;;;;;;18.17;8.52;;;;;;;5.79;100.00;99259.84;4415389;32;20092;-72
2022/04/14 02:58:58;;;;;;;14.50;7.07;;;;;;;5.53;100.00;99222.53;4414209;32;20078;-71
2022/04/14 03:01:24;;;;;;;21.15;7.95;;;;;;;5.48;100.00;99214.34;4414668;32;20091;-72
2022/04/14 03:03:51;;;;;;;15.32;6.45;;;;;;;5.71;100.00;99248.56;4417891;32;20030;-74
2022/04/14 03:06:17;;;;;;;16.62;7.43;;;;;;;5.69;100.00;99243.44;4416281;32;20403;-72
2022/04/14 03:08:44;;;;;;;19.62;6.55;;;;;;;5.49;100.00;99207.97;4418254;32;20051;-72
2022/04/14 03:11:12;;;;;;;23.27;8.25;;;;;;;5.74;100.00;99245.47;4415737;32;20259;-72
2022/04/14 03:13:40;;;;;;;16.52;7.47;;;;;;;5.47;100.00;99213.53;4401671;32;20042;-71
2022/04/14 03:16:06;;;;;;;22.30;7.68;;;;;;;5.75;100.00;99253.28;4401754;32;20499;-72
2022/04/14 03:18:33;;;;;;;19.83;7.97;;;;;;;5.52;100.00;99215.56;4401068;32;20211;-71
2022/04/14 03:21:01;;;;;;;16.25;7.80;;;;;;;5.46;100.00;99212.72;4386155;32;20068;-71
2022/04/14 03:23:27;;;;;;;24.02;7.72;;;;;;;5.57;100.00;99227.25;4386657;32;20065;-71
2022/04/14 03:25:54;;;;;;;23.33;7.93;;;;;;;5.63;100.00;99233.59;4391161;32;20039;-71
2022/04/14 03:28:20;;;;;;;21.40;7.43;;;;;;;5.63;100.00;99236.25;4414773;32;20042;-72
2022/04/14 03:30:47;;;;;;;20.70;8.40;;;;;;;5.69;100.00;99247.97;4415877;32;20464;-72
2022/04/14 03:33:13;;;;;;;18.90;7.82;;;;;;;5.54;100.00;99218.84;4417701;32;20046;-72
2022/04/14 03:35:40;;;;;;;12.40;7.25;;;;;;;5.58;100.00;99236.09;4417617;32;20076;-73
2022/04/14 03:38:06;;;;;;;16.30;6.93;;;;;;;5.65;100.00;99242.22;4415967;32;20035;-72
2022/04/14 03:40:33;;;;;;;18.15;9.25;;;;;;;5.65;100.00;99234.22;4403267;32;20034;-73
2022/04/14 03:42:59;;;;;;;15.77;7.35;;;;;;;5.64;100.00;99235.25;4404123;32;20080;-72
2022/04/14 03:45:25;;;;;;;15.52;7.05;;;;;;;5.45;100.00;99195.03;4406533;32;20076;-72
2022/04/14 03:47:52;;;;;;;18.73;7.60;;;;;;;5.69;100.00;99222.06;4416905;32;20038;-72
2022/04/14 03:50:18;;;;;;;20.62;7.65;;;;;;;5.48;100.00;99183.13;4416994;32;20103;-72
2022/04/14 03:52:44;;;;;;;22.95;7.47;;;;;;;5.77;100.00;99219.12;4417399;32;20031;-72
2022/04/14 03:55:11;;;;;;;14.05;7.25;;;;;;;5.51;100.00;99184.56;4405189;32;20042;-73
2022/04/14 03:57:37;;;;;;;14.32;7.07;;;;;;;5.49;100.00;99181.25;4400477;32;20763;-72
2022/04/14 04:00:04;;;;;;;28.92;8.52;;;;;;;5.22;100.00;99136.00;4402997;32;20034;-72
2022/04/14 04:02:30;;;;;;;19.60;8.13;;;;;;;5.71;100.00;99220.00;4387033;32;20052;-72
2022/04/14 04:04:57;;;;;;;25.88;7.72;;;;;;;5.58;100.00;99198.69;4402129;32;20064;-71
2022/04/14 04:07:23;;;;;;;14.00;6.60;;;;;;;5.67;100.00;99213.44;4400485;32;20068;-73
2022/04/14 04:09:50;;;;;;;20.45;7.28;;;;;;;5.70;100.00;99226.38;4399019;32;20065;-71
2022/04/14 04:12:19;;;;;;;30.62;8.00;;;;;;;5.38;100.00;99180.91;4386307;32;20380;-71
2022/04/14 04:14:45;;;;;;;25.42;7.43;;;;;;;5.54;100.00;99198.28;4399934;32;20031;-70
2022/04/14 04:17:12;;;;;;;22.77;7.28;;;;;;;5.40;100.00;99181.50;4399524;32;20402;-72
2022/04/14 04:19:39;;;;;;;26.83;8.77;;;;;;;5.42;100.00;99190.12;4398462;32;20442;-72
2022/04/14 04:22:06;;;;;;;19.05;8.13;;;;;;;5.56;100.00;99206.09;4401522;32;20055;-72
2022/04/14 04:24:32;;;;;;;20.10;8.13;;;;;;;5.37;100.00;99176.59;4401640;32;20035;-72
2022/04/14 04:26:59;;;;;;;20.20;7.45;;;;;;;5.67;100.00;99204.62;4380152;32;20098;-72
2022/04/14 04:29:25;;;;;;;31.58;8.50;;;;;;;5.67;100.00;99205.44;4397897;32;20112;-72
2022/04/14 04:31:52;;;;;;;12.25;6.68;;;;;;;5.62;100.00;99192.72;4398291;32;20076;-72
2022/04/14 04:34:18;;;;;;;23.35;7.15;;;;;;;5.82;100.00;99216.66;4384175;32;20086;-72
2022/04/14 04:36:45;;;;;;;14.50;6.70;;;;;;;5.56;100.00;99174.03;4405559;32;20034;-72
2022/04/14 04:39:11;;;;;;;18.67;6.80;;;;;;;5.71;100.00;99203.97;4415318;32;20026;-73
2022/04/14 04:41:38;;;;;;;15.35;6.72;;;;;;;5.56;100.00;99174.84;4394904;32;20103;-71
2022/04/14 04:44:05;;;;;;;12.75;6.93;;;;;;;5.57;100.00;99181.03;4388427;32;20081;-72
2022/04/14 04:46:31;;;;;;;24.65;8.13;;;;;;;5.81;100.00;99215.00;4377832;32;20072;-71
2022/04/14 04:48:58;;;;;;;16.85;7.07;;;;;;;5.78;100.00;99220.78;4387609;32;20104;-72
2022/04/14 04:51:27;;;;;;;25.52;6.82;;;;;;;5.77;100.00;99205.78;4390584;32;20060;-71
2022/04/14 04:53:54;;;;;;;18.90;7.65;;;;;;;5.75;100.00;99202.50;4391506;32;20084;-71
2022/04/14 04:56:21;;;;;;;20.62;7.40;;;;;;;5.83;100.00;99212.94;4393537;32;20196;-71
2022/04/14 04:58:47;;;;;;;17.12;6.82;;;;;;;5.88;100.00;99208.81;4392558;32;20068;-72
2022/04/14 05:01:13;;;;;;;23.92;6.75;;;;;;;5.55;100.00;99162.56;4395427;32;20060;-71
2022/04/14 05:03:40;;;;;;;21.77;6.82;;;;;;;5.73;100.00;99185.87;4414746;32;20047;-71
2022/04/14 05:06:06;;;;;;;17.95;8.57;;;;;;;5.92;100.00;99210.00;4412513;32;20499;-72
2022/04/14 05:08:32;;;;;;;23.80;7.45;;;;;;;5.95;100.00;99210.41;4400950;32;20332;-72
2022/04/14 05:10:59;;;;;;;22.00;7.82;;;;;;;5.77;100.00;99171.03;4400614;32;20050;-72
2022/04/14 05:13:25;;;;;;;15.70;7.68;;;;;;;6.05;100.00;99201.13;4401114;32;20038;-71
2022/04/14 05:15:51;;;;;;;16.02;6.18;;;;;;;6.07;100.00;99212.44;4397893;32;20428;-72
2022/04/14 05:18:18;;;;;;;15.07;6.85;;;;;;;6.06;100.00;99198.22;4400428;32;20487;-72
2022/04/14 05:20:44;;;;;;;22.35;7.25;;;;;;;6.14;99.41;99208.69;4399988;32;20042;-72
2022/04/14 05:23:11;;;;;;;17.92;7.05;;;;;;;6.17;98.34;99197.56;4400234;32;20092;-72
2022/04/14 05:25:41;;;;;;;16.83;7.60;;;;;;;6.23;97.76;99195.84;4400089;32;20352;-72
2022/04/14 05:28:07;;;;;;;14.85;7.97;;;;;;;6.26;97.96;99205.31;4400289;32;20072;-73
2022/04/14 05:30:33;;;;;;;20.95;7.37;;;;;;;6.31;97.66;99202.78;4399999;32;20068;-73
2022/04/14 05:33:00;;;;;;;13.30;5.93;;;;;;;6.32;97.48;99183.06;4395494;32;20396;-73
2022/04/14 05:35:26;;;;;;;19.48;8.38;;;;;;;6.29;96.66;99175.47;4400539;32;20203;-70
2022/04/14 05:37:53;;;;;;;18.58;7.43;;;;;;;6.40;96.81;99189.97;4401093;32;20038;-71
2022/04/14 05:40:20;;;;;;;15.15;7.68;;;;;;;6.41;96.90;99187.06;4400271;32;20080;-69
2022/04/14 05:42:46;;;;;;;21.33;8.35;;;;;;;6.52;96.19;99189.03;4398769;32;20039;-69
2022/04/14 05:45:13;;;;;;;18.02;7.65;;;;;;;6.23;96.58;99141.56;4400798;32;20073;-69
2022/04/14 05:47:40;;;;;;;17.87;6.90;;;;;;;6.53;96.93;99189.88;4409651;32;20037;-70
2022/04/14 05:50:07;;;;;;;20.48;6.55;;;;;;;6.34;96.22;99144.34;4415746;32;20469;-69
2022/04/14 05:52:33;;;;;;;29.40;7.50;;;;;;;6.70;96.77;99200.81;4414735;32;20064;-71
2022/04/14 05:55:01;;;;;;;21.15;8.13;;;;;;;6.53;92.45;99153.22;4409180;32;20095;-71
2022/04/14 05:57:29;;;;;;;28.77;7.55;;;;;;;6.60;91.94;99150.47;4401932;32;20026;-69
2022/04/14 05:59:56;;;;;;;18.80;7.75;;;;;;;6.69;91.20;99161.72;4407466;32;20057;-70
2022/04/14 06:02:23;;;;;;;22.85;8.48;;;;;;;6.98;90.03;99191.50;4398739;32;20400;-70
2022/04/14 06:04:51;;;;;;;19.58;8.70;;;;;;;7.14;89.32;99180.19;4397508;32;20084;-70
2022/04/14 06:07:17;;;;;;;15.65;8.02;;;;;;;6.94;86.33;99147.47;4400036;32;20050;-70
2022/04/14 06:09:43;;;;;;;20.42;6.95;;;;;;;7.22;87.50;99174.53;4406011;32;20042;-71
2022/04/14 06:12:10;;;;;;;16.12;7.97;;;;;;;7.25;85.58;99174.09;4374045;32;20043;-71
2022/04/14 06:14:37;;;;;;;24.87;7.57;;;;;;;7.40;83.39;99183.59;4402363;32;20050;-71
2022/04/14 06:17:04;;;;;;;21.85;7.05;;;;;;;7.48;83.32;99179.78;4414191;32;20029;-70
2022/04/14 06:19:31;;;;;;;11.88;7.37;;;;;;;7.38;82.27;99142.81;4414146;32;20034;-72
2022/04/14 06:21:57;;;;;;;21.60;7.70;;;;;;;7.75;80.23;99185.63;4408938;32;20050;-71
2022/04/14 06:24:23;;;;;;;16.40;7.50;;;;;;;7.84;79.39;99189.62;4414014;32;20377;-71
2022/04/14 06:26:50;;;;;;;16.62;7.57;;;;;;;7.94;79.12;99189.88;4412331;32;20038;-71
2022/04/14 06:29:16;;;;;;;16.05;8.45;;;;;;;7.90;78.58;99159.22;4415339;32;20072;-71
2022/04/14 06:31:42;;;;;;;14.10;7.03;;;;;;;7.91;75.83;99146.63;4413450;32;20043;-71
2022/04/14 06:34:09;;;;;;;15.75;6.90;;;;;;;8.29;76.36;99199.88;4411311;32;20410;-70
2022/04/14 06:36:35;;;;;;;25.10;7.78;;;;;;;8.32;74.59;99186.00;4393486;32;20443;-70
2022/04/14 06:39:01;;;;;;;21.95;8.20;;;;;;;8.34;77.29;99178.56;4395116;32;20166;-70
2022/04/14 06:41:28;;;;;;;19.40;7.47;;;;;;;8.53;76.23;99181.16;4397242;32;20434;-70
2022/04/14 06:43:54;;;;;;;20.52;7.85;;;;;;;8.54;75.94;99177.44;4389962;32;20095;-70
2022/04/14 06:46:21;;;;;;;15.98;7.10;;;;;;;8.62;76.33;99189.69;4401914;32;20176;-70
2022/04/14 06:48:48;;;;;;;20.45;7.90;;;;;;;8.71;76.08;99178.37;4409596;32;20084;-71
2022/04/14 06:51:15;;;;;;;17.60;7.97;;;;;;;8.82;77.13;99189.34;4403375;32;20081;-70
2022/04/14 06:53:43;;;;;;;45.05;9.15;;;;;;;8.94;76.50;99182.09;4403359;32;20065;-70
2022/04/14 06:56:10;;;;;;;27.62;8.63;;;;;;;9.01;75.50;99182.78;4406369;32;20049;-70
2022/04/14 06:58:37;;;;;;;21.55;9.00;;;;;;;9.08;74.60;99179.97;4402279;32;20408;-70
2022/04/14 07:01:03;;;;;;;19.80;9.07;;;;;;;8.94;74.47;99136.44;4397347;32;20096;-70
2022/04/14 07:03:30;;;;;;;19.25;8.30;;;;;;;9.17;71.83;99180.41;4400978;32;20081;-70
2022/04/14 07:06:00;;;;;;;16.27;8.05;;;;;;;9.24;72.98;99186.50;4402725;32;20047;-70
2022/04/14 07:08:27;;;;;;;20.15;9.50;;;;;;;9.30;74.15;99188.22;4402915;32;20031;-70
2022/04/14 07:10:54;;;;;;;21.20;8.50;;;;;;;9.44;74.85;99186.91;4400774;32;20060;-70
2022/04/14 07:13:20;;;;;;;15.38;9.05;;;;;;;9.22;75.38;99150.97;4400370;32;20436;-70
2022/04/14 07:15:47;;;;;;;20.70;9.40;;;;;;;9.56;75.36;99183.38;4417326;32;20034;-71
2022/04/14 07:18:13;;;;;;;27.35;8.52;;;;;;;9.73;76.71;99181.56;4417429;32;20341;-70
2022/04/14 07:20:40;;;;;;;18.60;9.73;;;;;;;9.80;76.43;99184.91;4417529;32;20080;-71
2022/04/14 07:23:06;;;;;;;31.80;10.90;;;;;;;9.74;74.59;99158.97;4414274;32;20052;-70
2022/04/14 07:25:35;;;;;;;21.08;9.27;;;;;;;9.82;76.70;99142.44;4417757;32;20087;-70
2022/04/14 07:28:02;;;;;;;20.10;8.52;;;;;;;10.10;77.78;99175.75;4363478;32;20072;-70
2022/04/14 07:30:29;;;;;;;26.23;11.15;;;;;;;10.25;75.69;99174.38;4383755;32;20195;-70
2022/04/14 07:32:56;;;;;;;24.27;9.07;;;;;;;10.39;75.53;99181.09;4385637;32;20445;-71
2022/04/14 07:35:23;;;;;;;21.58;9.80;;;;;;;10.52;76.08;99169.19;4389117;32;20060;-70
2022/04/14 07:37:49;;;;;;;27.70;9.27;;;;;;;10.63;75.64;99167.47;4408375;32;20405;-71
2022/04/14 07:40:16;;;;;;;23.12;8.55;;;;;;;10.54;73.79;99127.47;4404002;32;20030;-71
2022/04/14 07:42:45;;;;;;;26.65;8.60;;;;;;;10.99;73.02;99173.34;4400267;32;20068;-70
2022/04/14 07:45:15;;;;;;;26.55;11.98;;;;;;;11.15;73.59;99172.47;4398564;32;20034;-69
2022/04/14 07:47:43;;;;;;;25.30;10.30;;;;;;;11.17;72.86;99170.37;4382264;32;20069;-70
2022/04/14 07:50:11;;;;;;;29.48;10.77;;;;;;;11.22;72.91;99138.06;4397623;32;20435;-70
2022/04/14 07:52:56;;;;;;;39.72;9.60;;;;;;;11.61;71.44;99174.91;4397906;32;20068;-70
2022/04/14 07:55:25;;;;;;;33.22;9.82;;;;;;;11.72;67.32;99170.44;4399337;32;20070;-70
2022/04/14 07:57:54;;;;;;;20.10;9.95;;;;;;;11.73;66.29;99172.91;4399571;32;20053;-70
2022/04/14 08:00:21;;;;;;;22.73;10.07;;;;;;;11.96;66.38;99174.50;4396810;32;20043;-71
2022/04/14 08:02:56;;;;;;;26.62;9.90;;;;;;;12.11;65.28;99173.84;4399814;32;20144;-71
2022/04/14 08:05:32;;;;;;;25.77;10.93;;;;;;;12.27;62.90;99182.06;4403119;32;20047;-71
2022/04/14 08:08:04;;;;;;;31.87;12.13;;;;;;;11.63;62.18;99052.25;4403643;32;20092;-70
2022/04/14 08:10:31;;;;;;;31.92;10.88;;;;;;;12.60;61.96;99174.75;4413787;32;20352;-70
2022/04/14 08:12:57;;;;;;;25.12;12.68;;;;;;;12.67;61.68;99157.25;4418340;32;20038;-70
2022/04/14 08:15:25;;;;;;;25.10;11.40;;;;;;;12.96;62.10;99173.09;4416594;32;20050;-69
2022/04/14 08:17:51;;;;;;;27.13;10.90;;;;;;;12.88;63.04;99127.66;4399833;32;20035;-70
2022/04/14 08:20:18;;;;;;;29.20;12.57;;;;;;;13.41;57.85;99179.81;4401702;32;20038;-70
2022/04/14 08:22:56;;;;;;;22.87;10.32;;;;;;;13.59;56.46;99165.03;4399783;32;20384;-71
2022/04/14 08:25:24;;;;;;;32.85;11.18;;;;;;;13.62;54.85;99163.66;4386574;32;20044;-71
2022/04/14 08:27:52;;;;;;;34.30;16.73;;;;;;;13.88;55.78;99177.25;4401700;32;20440;-70
2022/04/14 08:30:22;;;;;;;25.58;11.50;;;;;;;13.75;56.48;99135.28;4398509;32;20419;-71
2022/04/14 08:32:50;;;;;;;38.25;11.52;;;;;;;13.98;56.17;99131.28;4397581;32;20106;-71
2022/04/14 08:35:19;;;;;;;31.45;11.38;;;;;;;13.91;51.02;99122.59;4400604;32;20060;-70
2022/04/14 08:37:46;;;;;;;24.20;11.70;;;;;;;14.28;53.05;99172.97;4399823;32;20405;-70
2022/04/14 08:40:16;;;;;;;33.03;11.10;;;;;;;14.34;54.04;99131.25;4399069;32;20068;-70
2022/04/14 08:42:52;;;;;;;22.90;11.27;;;;;;;14.79;53.60;99166.72;4399654;32;20043;-71
2022/04/14 08:45:23;;;;;;;34.30;12.00;;;;;;;14.78;49.75;99167.81;4400863;32;20398;-72
2022/04/14 08:47:51;;;;;;;34.65;11.30;;;;;;;14.93;50.46;99166.97;4400997;32;20076;-72
2022/04/14 08:50:17;;;;;;;25.77;12.02;;;;;;;14.69;50.36;99124.19;4398686;32;20408;-72
2022/04/14 08:52:44;;;;;;;27.73;11.90;;;;;;;15.01;49.15;99160.97;4401604;32;20088;-71
2022/04/14 08:55:13;;;;;;;19.15;9.55;;;;;;;15.17;48.88;99159.88;4401279;32;20043;-72
2022/04/14 08:57:43;;;;;;;30.33;12.35;;;;;;;15.35;49.53;99154.87;4403195;32;20061;-72
2022/04/14 09:00:12;;;;;;;25.90;12.65;;;;;;;15.17;50.17;99124.59;4403472;32;20080;-71
2022/04/14 09:02:39;;;;;;;27.42;11.45;;;;;;;15.23;49.04;99117.25;4400996;32;20426;-71
2022/04/14 09:05:06;;;;;;;30.67;12.37;;;;;;;15.64;49.05;99148.81;4399067;32;20057;-71
2022/04/14 09:07:33;;;;;;;27.58;11.35;;;;;;;15.34;48.20;99142.44;4395792;32;20035;-71
2022/04/14 09:09:59;;;;;;;28.05;11.55;;;;;;;15.46;48.14;99137.50;4371786;32;20436;-72
2022/04/14 09:12:27;;;;;;;25.65;12.32;;;;;;;15.55;48.06;99110.56;4398490;32;20067;-73
2022/04/14 09:14:54;;;;;;;31.87;11.93;;;;;;;16.00;47.16;99143.16;4400803;32;20543;-72
2022/04/14 09:17:21;;;;;;;22.73;11.80;;;;;;;16.10;47.27;99137.66;4385118;32;20080;-71
2022/04/14 09:19:48;;;;;;;29.02;13.73;;;;;;;16.19;48.60;99141.38;4389489;32;20059;-72
2022/04/14 09:22:15;;;;;;;31.00;12.55;;;;;;;15.95;48.17;99106.78;4400030;32;20076;-73
2022/04/14 09:24:43;;;;;;;35.13;13.77;;;;;;;16.27;48.25;99138.03;4398949;32;20057;-72
2022/04/14 09:27:23;;;;;;;28.87;13.18;;;;;;;16.20;48.41;99140.28;4400678;32;20219;-72
2022/04/14 09:29:51;;;;;;;21.83;11.82;;;;;;;16.29;48.07;99133.16;4384465;32;20076;-72
2022/04/14 09:32:45;;;;;;;24.30;11.88;;;;;;;16.30;48.71;99132.03;4384941;32;20035;-72
2022/04/14 09:35:16;;;;;;;21.42;11.88;;;;;;;16.25;46.78;99134.81;4385508;32;20047;-72
2022/04/14 09:37:43;;;;;;;24.25;11.65;;;;;;;16.22;48.07;99086.47;4399312;32;20026;-72
2022/04/14 09:40:11;;;;;;;27.23;12.98;;;;;;;16.43;48.88;99114.25;4397318;32;20086;-73
2022/04/14 09:42:40;;;;;;;26.55;11.60;;;;;;;16.54;48.50;99125.84;4396944;32;20795;-73
2022/04/14 09:45:21;;;;;;;25.35;11.48;;;;;;;16.46;48.93;99093.87;4399823;32;20180;-72
2022/04/14 09:47:49;;;;;;;28.67;13.60;;;;;;;16.93;48.82;99113.25;4387896;32;20375;-71
2022/04/14 09:50:35;;;;;;;27.62;12.93;;;;;;;16.76;47.18;99113.69;4398614;32;20043;-72
2022/04/14 09:53:12;;;;;;;26.12;12.27;;;;;;;16.41;47.51;99110.22;4389789;32;20354;-71
2022/04/14 09:55:54;;;;;;;24.48;11.52;;;;;;;16.87;48.09;99102.44;4397980;32;20060;-72
2022/04/14 09:58:23;;;;;;;25.55;11.20;;;;;;;16.98;46.87;99092.25;4399006;32;20104;-72
2022/04/14 10:00:50;;;;;;;32.22;12.43;;;;;;;17.16;45.86;99109.69;4398691;32;20082;-71
2022/04/14 10:03:22;;;;;;;28.80;12.05;;;;;;;17.28;45.52;99103.84;4399171;32;20042;-70
2022/04/14 10:05:53;;;;;;;24.95;12.30;;;;;;;17.21;47.08;99095.22;4394532;32;20124;-71
2022/04/14 10:08:22;;;;;;;26.85;13.20;;;;;;;17.20;46.94;99090.88;4403046;32;20047;-71
2022/04/14 10:11:03;;;;;;;22.95;10.57;;;;;;;16.69;45.66;99095.81;4399742;32;20081;-71
2022/04/14 10:13:40;;;;;;;24.85;10.25;;;;;;;16.97;46.46;99057.97;4380017;32;20074;-71
2022/04/14 10:16:07;;;;;;;29.12;13.45;;;;;;;17.54;45.76;99081.72;4401352;32;20058;-71
2022/04/14 10:18:34;;;;;;;32.03;12.37;;;;;;;17.68;45.05;99076.31;4400884;32;20410;-69
2022/04/14 10:21:00;;;;;;;19.62;11.00;;;;;;;17.35;45.03;99068.91;4402790;32;20046;-71
2022/04/14 10:23:28;;;;;;;29.37;12.18;;;;;;;17.55;44.85;99069.72;4416372;32;20039;-72
2022/04/14 10:25:55;;;;;;;26.08;12.35;;;;;;;17.72;44.77;99080.88;4418279;32;20047;-72
2022/04/14 10:28:24;;;;;;;20.60;10.88;;;;;;;17.71;44.77;99071.13;4418458;32;20056;-70
2022/04/14 10:30:55;;;;;;;28.23;11.40;;;;;;;18.18;44.98;99073.13;4404999;32;20046;-70
2022/04/14 10:33:22;;;;;;;22.85;10.40;;;;;;;17.91;43.06;99031.06;4401642;32;20034;-71
2022/04/14 10:35:50;;;;;;;24.52;11.07;;;;;;;18.01;43.02;99036.34;4403215;32;20097;-70
2022/04/14 10:38:30;;;;;;;24.25;9.88;;;;;;;18.05;43.11;99031.91;4404028;32;20043;-70
2022/04/14 10:41:05;;;;;;;25.35;10.90;;;;;;;18.17;41.93;99069.56;4406813;32;20039;-70
2022/04/14 10:43:34;;;;;;;22.70;9.57;;;;;;;18.43;42.41;99064.50;4386119;32;20177;-69
2022/04/14 10:46:01;;;;;;;33.97;11.45;;;;;;;18.64;42.18;99064.91;4411868;32;20415;-68
2022/04/14 10:48:36;;;;;;;17.52;8.05;;;;;;;18.65;41.77;99062.97;4418943;32;20038;-70
2022/04/14 10:51:27;;;;;;;18.58;8.32;;;;;;;18.68;39.58;99065.09;4418363;32;20038;-69
2022/04/14 10:54:09;;;;;;;21.60;8.88;;;;;;;18.94;39.74;99053.72;4385666;32;20084;-69
2022/04/14 10:56:44;;;;;;;22.85;8.90;;;;;;;18.87;38.35;99041.31;4396707;32;20061;-68
2022/04/14 10:59:15;;;;;;;22.98;9.07;;;;;;;18.69;39.35;99044.91;4399505;32;20458;-70
2022/04/14 11:01:48;;;;;;;21.85;9.75;;;;;;;19.02;39.27;99058.47;4401406;32;20098;-70
2022/04/14 11:04:35;;;;;;;17.25;9.57;;;;;;;19.32;40.60;99056.19;4402656;32;20042;-69
2022/04/14 11:07:13;;;;;;;15.57;10.05;;;;;;;19.19;39.25;99052.38;4388141;32;20078;-69
2022/04/14 11:12:11;;;;;;;30.58;9.98;;;;;;;19.14;39.58;99031.44;4400533;32;20469;-70
2022/04/14 11:14:42;;;;;;;26.00;9.95;;;;;;;19.48;39.98;99043.00;4401119;32;20162;-69
2022/04/14 11:17:32;;;;;;;14.52;8.75;;;;;;;19.60;39.72;99046.78;4400959;32;20051;-70
2022/04/14 11:20:17;;;;;;;20.00;8.82;;;;;;;20.08;38.88;99055.53;4400313;32;20411;-70
2022/04/14 11:23:20;;;;;;;24.42;7.37;;;;;;;19.88;37.68;99057.66;4404370;32;20052;-69
2022/04/14 11:26:01;;;;;;;14.63;8.25;;;;;;;19.68;37.13;99063.56;4401738;32;20074;-68
2022/04/14 11:28:33;;;;;;;13.05;7.22;;;;;;;19.77;36.93;99056.28;4403158;32;20030;-68
2022/04/14 11:31:02;;;;;;;9.52;5.93;;;;;;;19.87;35.91;99047.84;4402677;32;20234;-70
2022/04/14 11:33:32;;;;;;;14.77;8.15;;;;;;;20.01;35.80;99046.94;4405542;32;20081;-68